Cisne Branco — PWCB — position and weather

sailwx.info

Track history (hours):
 
Tides and Currents Weather Stations Pressure Air Temp Water Temp Dewpoint Dewpoint Depression Visibility Wind Speed Wind Dir Waves Ship Positions

Cisne Branco (Brazil)

Last reported at 2015-Aug-04 16:33 UTC. Time now 2015-Aug-04 21:55 UTC.
Position N 56°59' E 010°19'.

Length 78 m; draft 4.8 m.

Type: Sailing vessel. MMSI: 710428000.

Date/timePositionNaut miles runAvg speedWind from/ knotsBaromVisibWave heightAir tempDewpointWater temp
2015-Aug-04 16:33N 56°59' E 010°19'6 5.9
2015-Aug-04 15:33N 57°01' E 010°09'5 4.9
2015-Aug-04 14:34N 57°04' E 010°02'3 2.9
2015-Aug-04 13:33N 57°03' E 009°57'1 0.2
2015-Aug-04 09:28N 57°03' E 009°56'0 0.0
2015-Aug-04 08:28N 57°03' E 009°56'0 0.0
2015-Aug-04 07:28N 57°03' E 009°56'0 0.0
2015-Aug-04 06:28N 57°03' E 009°56'0 0.0
2015-Aug-04 05:33N 57°03' E 009°56'0 0.0
2015-Aug-04 04:33N 57°03' E 009°56'0 0.0
2015-Aug-04 03:34N 57°03' E 009°56'0 0.0
2015-Aug-04 02:33N 57°03' E 009°56'0 0.0
2015-Aug-04 01:33N 57°03' E 009°56'0 0.0
2015-Aug-04 00:33N 57°03' E 009°56'0 0.0
2015-Aug-03 23:33N 57°03' E 009°56'0 0.0
2015-Aug-03 22:33N 57°03' E 009°56'0 0.0
2015-Aug-03 21:33N 57°03' E 009°56'0 0.0
2015-Aug-03 20:33N 57°03' E 009°56'0 0.0
2015-Aug-03 19:33N 57°03' E 009°56'0 0.0
2015-Aug-03 18:33N 57°03' E 009°56'0 0.0
2015-Aug-03 17:33N 57°03' E 009°56'0 0.0
2015-Aug-03 16:33N 57°03' E 009°56'0 0.0
2015-Aug-03 15:33N 57°03' E 009°56'0 0.0
2015-Aug-03 14:33N 57°03' E 009°56'0 0.0
2015-Aug-03 13:33N 57°03' E 009°56'0 0.0
2015-Aug-03 12:33N 57°03' E 009°56'0 0.0
2015-Aug-03 11:33N 57°03' E 009°56'0 0.0
2015-Aug-03 10:33N 57°03' E 009°56'0 0.0
2015-Aug-03 09:34N 57°03' E 009°56'0 0.0
2015-Aug-03 08:33N 57°03' E 009°56'0 0.0
2015-Aug-03 06:33N 57°03' E 009°56'0 0.0
2015-Aug-03 00:25N 57°03' E 009°56'0 0.0
2015-Aug-02 23:27N 57°03' E 009°56'0 0.0
2015-Aug-02 22:33N 57°03' E 009°56'0 0.0
2015-Aug-02 21:34N 57°03' E 009°56'0 0.0
2015-Aug-02 18:30N 57°03' E 009°56'0 0.0
2015-Aug-02 15:31N 57°03' E 009°56'0 0.0
2015-Aug-02 14:21N 57°03' E 009°56'0 0.0
2015-Aug-02 13:33N 57°03' E 009°56'0 0.0
2015-Aug-02 12:33N 57°03' E 009°56'0 0.0
2015-Aug-02 11:33N 57°03' E 009°56'0 0.0
2015-Aug-02 10:25N 57°03' E 009°56'0 0.0
2015-Aug-02 09:33N 57°03' E 009°56'0 0.0
2015-Aug-02 08:33N 57°03' E 009°56'0 0.0
2015-Aug-02 07:33N 57°03' E 009°56'0 0.0
2015-Aug-02 06:33N 57°03' E 009°56'0 0.0
2015-Aug-02 05:33N 57°03' E 009°56'0 0.0
2015-Aug-02 04:33N 57°03' E 009°56'0 0.0
2015-Aug-02 03:33N 57°03' E 009°56'0 0.0
2015-Aug-02 02:33N 57°03' E 009°56'0 0.0
2015-Aug-02 00:20N 57°03' E 009°56'0 0.0
2015-Aug-01 23:28N 57°03' E 009°56'0 0.0
2015-Aug-01 22:13N 57°03' E 009°56'0 0.0
2015-Aug-01 21:15N 57°03' E 009°56'0 0.0
2015-Aug-01 20:33N 57°03' E 009°56'0 0.0
2015-Aug-01 19:33N 57°03' E 009°56'0 0.0
2015-Aug-01 18:30N 57°03' E 009°56'0 0.0
2015-Aug-01 17:33N 57°03' E 009°56'0 0.0
2015-Aug-01 16:33N 57°03' E 009°56'0 0.0
2015-Aug-01 15:33N 57°03' E 009°56'0 0.0
2015-Aug-01 14:33N 57°03' E 009°56'0 0.0
2015-Aug-01 13:25N 57°03' E 009°56'0 0.0
2015-Aug-01 12:10N 57°03' E 009°56'0 0.0
2015-Aug-01 11:33N 57°03' E 009°56'0 0.0
2015-Aug-01 10:29N 57°03' E 009°56'0 0.0
2015-Aug-01 09:31N 57°03' E 009°56'0 0.0
2015-Aug-01 08:21N 57°03' E 009°56'0 0.0
2015-Aug-01 07:13N 57°03' E 009°56'0 0.0
2015-Aug-01 03:29N 57°03' E 009°56'0 0.0
2015-Aug-01 02:16N 57°03' E 009°56'0 0.0
2015-Aug-01 01:23N 57°03' E 009°56'0 0.0
2015-Aug-01 00:33N 57°03' E 009°56'0 0.0
2015-Jul-31 23:32N 57°03' E 009°56'0 0.0
2015-Jul-31 22:31N 57°03' E 009°56'0 0.0
2015-Jul-31 21:33N 57°03' E 009°56'0 0.0
2015-Jul-31 20:33N 57°03' E 009°56'0 0.0
2015-Jul-31 19:33N 57°03' E 009°56'2 2.5
2015-Jul-31 18:33N 57°05' E 009°59'48 2.8
2015-Jul-31 01:28N 57°18' E 011°25'6 6.5
2015-Jul-31 00:34N 57°24' E 011°24'21 6.5
2015-Jul-30 21:15N 57°40' E 010°57'8 6.9
2015-Jul-30 20:07N 57°46' E 010°50'  
Track history (hours):
 
Tides and Currents Weather Stations Pressure Air Temp Water Temp Dewpoint Dewpoint Depression Visibility Wind Speed Wind Dir Waves Ship Positions

Cisne Branco (Brazil)

Last reported at 2015-Aug-04 16:33 UTC. Time now 2015-Aug-04 21:55 UTC.
Position N 56°59' E 010°19'.

Length 78 m; draft 4.8 m.

Type: Sailing vessel. MMSI: 710428000.

Date/timePositionNaut miles runAvg speedWind from/ knotsBaromVisibWave heightAir tempDewpointWater temp
2015-Aug-04 16:33N 56°59' E 010°19'6 5.9
2015-Aug-04 15:33N 57°01' E 010°09'5 4.9
2015-Aug-04 14:34N 57°04' E 010°02'3 2.9
2015-Aug-04 13:33N 57°03' E 009°57'1 0.2
2015-Aug-04 09:28N 57°03' E 009°56'0 0.0
2015-Aug-04 08:28N 57°03' E 009°56'0 0.0
2015-Aug-04 07:28N 57°03' E 009°56'0 0.0
2015-Aug-04 06:28N 57°03' E 009°56'0 0.0
2015-Aug-04 05:33N 57°03' E 009°56'0 0.0
2015-Aug-04 04:33N 57°03' E 009°56'0 0.0
2015-Aug-04 03:34N 57°03' E 009°56'0 0.0
2015-Aug-04 02:33N 57°03' E 009°56'0 0.0
2015-Aug-04 01:33N 57°03' E 009°56'0 0.0
2015-Aug-04 00:33N 57°03' E 009°56'0 0.0
2015-Aug-03 23:33N 57°03' E 009°56'0 0.0
2015-Aug-03 22:33N 57°03' E 009°56'0 0.0
2015-Aug-03 21:33N 57°03' E 009°56'0 0.0
2015-Aug-03 20:33N 57°03' E 009°56'0 0.0
2015-Aug-03 19:33N 57°03' E 009°56'0 0.0
2015-Aug-03 18:33N 57°03' E 009°56'0 0.0
2015-Aug-03 17:33N 57°03' E 009°56'0 0.0
2015-Aug-03 16:33N 57°03' E 009°56'0 0.0
2015-Aug-03 15:33N 57°03' E 009°56'0 0.0
2015-Aug-03 14:33N 57°03' E 009°56'0 0.0
2015-Aug-03 13:33N 57°03' E 009°56'0 0.0
2015-Aug-03 12:33N 57°03' E 009°56'0 0.0
2015-Aug-03 11:33N 57°03' E 009°56'0 0.0
2015-Aug-03 10:33N 57°03' E 009°56'0 0.0
2015-Aug-03 09:34N 57°03' E 009°56'0 0.0
2015-Aug-03 08:33N 57°03' E 009°56'0 0.0
2015-Aug-03 06:33N 57°03' E 009°56'0 0.0
2015-Aug-03 00:25N 57°03' E 009°56'0 0.0
2015-Aug-02 23:27N 57°03' E 009°56'0 0.0
2015-Aug-02 22:33N 57°03' E 009°56'0 0.0
2015-Aug-02 21:34N 57°03' E 009°56'0 0.0
2015-Aug-02 18:30N 57°03' E 009°56'0 0.0
2015-Aug-02 15:31N 57°03' E 009°56'0 0.0
2015-Aug-02 14:21N 57°03' E 009°56'0 0.0
2015-Aug-02 13:33N 57°03' E 009°56'0 0.0
2015-Aug-02 12:33N 57°03' E 009°56'0 0.0
2015-Aug-02 11:33N 57°03' E 009°56'0 0.0
2015-Aug-02 10:25N 57°03' E 009°56'0 0.0
2015-Aug-02 09:33N 57°03' E 009°56'0 0.0
2015-Aug-02 08:33N 57°03' E 009°56'0 0.0
2015-Aug-02 07:33N 57°03' E 009°56'0 0.0
2015-Aug-02 06:33N 57°03' E 009°56'0 0.0
2015-Aug-02 05:33N 57°03' E 009°56'0 0.0
2015-Aug-02 04:33N 57°03' E 009°56'0 0.0
2015-Aug-02 03:33N 57°03' E 009°56'0 0.0
2015-Aug-02 02:33N 57°03' E 009°56'0 0.0
2015-Aug-02 00:20N 57°03' E 009°56'0 0.0
2015-Aug-01 23:28N 57°03' E 009°56'0 0.0
2015-Aug-01 22:13N 57°03' E 009°56'0 0.0
2015-Aug-01 21:15N 57°03' E 009°56'0 0.0
2015-Aug-01 20:33N 57°03' E 009°56'0 0.0
2015-Aug-01 19:33N 57°03' E 009°56'0 0.0
2015-Aug-01 18:30N 57°03' E 009°56'0 0.0
2015-Aug-01 17:33N 57°03' E 009°56'0 0.0
2015-Aug-01 16:33N 57°03' E 009°56'0 0.0
2015-Aug-01 15:33N 57°03' E 009°56'0 0.0
2015-Aug-01 14:33N 57°03' E 009°56'0 0.0
2015-Aug-01 13:25N 57°03' E 009°56'0 0.0
2015-Aug-01 12:10N 57°03' E 009°56'0 0.0
2015-Aug-01 11:33N 57°03' E 009°56'0 0.0
2015-Aug-01 10:29N 57°03' E 009°56'0 0.0
2015-Aug-01 09:31N 57°03' E 009°56'0 0.0
2015-Aug-01 08:21N 57°03' E 009°56'0 0.0
2015-Aug-01 07:13N 57°03' E 009°56'0 0.0
2015-Aug-01 03:29N 57°03' E 009°56'0 0.0
2015-Aug-01 02:16N 57°03' E 009°56'0 0.0
2015-Aug-01 01:23N 57°03' E 009°56'0 0.0
2015-Aug-01 00:33N 57°03' E 009°56'0 0.0
2015-Jul-31 23:32N 57°03' E 009°56'0 0.0
2015-Jul-31 22:31N 57°03' E 009°56'0 0.0
2015-Jul-31 21:33N 57°03' E 009°56'0 0.0
2015-Jul-31 20:33N 57°03' E 009°56'0 0.0
2015-Jul-31 19:33N 57°03' E 009°56'2 2.5
2015-Jul-31 18:33N 57°05' E 009°59'48 2.8
2015-Jul-31 01:28N 57°18' E 011°25'6 6.5
2015-Jul-31 00:34N 57°24' E 011°24'21 6.5
2015-Jul-30 21:15N 57°40' E 010°57'8 6.9
2015-Jul-30 20:07N 57°46' E 010°50'  

Dump ship's entire track history